Terminal Aerodrome Forecast
Issued by NWS Wakefield, VA

Home | Current Version | Previous Version | Text Only | Print | Product List | Glossary On
Versions: 1 2 3 4 5 6 7 8 9 10 11 12 13 14
000
FTUS41 KAKQ 121140
TAFRIC
TAF
KRIC 121140Z 1212/1312 23009KT P6SM OVC200
     FM122000 28013KT P6SM BKN070
     FM122200 29012G20KT P6SM SCT070
     FM130200 30011KT P6SM SCT250=

USA.gov is the U.S. government's official web portal to all federal, state and local government web resources and services.